createdAt,value
2023-01-20T05:02:28.284Z,3.80
2023-01-20T05:04:58.636Z,4.15
2023-01-20T05:07:30.139Z,3.55
2023-01-20T05:09:57.380Z,3.05
2023-01-20T05:12:24.509Z,3.78
2023-01-20T05:14:51.585Z,4.47
2023-01-20T05:17:18.619Z,3.42
2023-01-20T05:19:45.682Z,3.40
2023-01-20T05:22:12.325Z,4.50
2023-01-20T05:24:38.991Z,3.30
2023-01-20T05:27:05.872Z,3.92
2023-01-20T05:29:33.815Z,3.45
2023-01-20T05:32:00.943Z,3.83
2023-01-20T05:34:27.589Z,4.97
2023-01-20T05:36:54.371Z,4.20
2023-01-20T05:39:21.484Z,3.95
2023-01-20T05:41:48.719Z,3.90
2023-01-20T05:44:15.635Z,4.10
2023-01-20T05:46:42.814Z,3.85
2023-01-20T05:49:11.599Z,4.22
2023-01-20T05:51:39.313Z,3.75
2023-01-20T05:54:06.014Z,4.32
2023-01-20T05:56:32.906Z,4.30
2023-01-20T05:59:01.264Z,4.40
2023-01-20T06:01:28.122Z,4.63
2023-01-20T06:03:55.041Z,5.03
2023-01-20T06:06:22.206Z,4.90
2023-01-20T06:08:49.656Z,6.15
2023-01-20T06:11:18.028Z,4.47
2023-01-20T06:13:48.076Z,4.68
2023-01-20T06:16:16.256Z,3.60
2023-01-20T06:18:42.967Z,4.22
2023-01-20T06:21:09.666Z,3.88
2023-01-20T06:23:36.371Z,3.90
2023-01-20T06:26:04.885Z,4.00
2023-01-20T06:28:33.684Z,4.10
2023-01-20T06:31:05.452Z,5.30
2023-01-20T06:33:33.082Z,4.35
2023-01-20T06:36:00.072Z,4.82
2023-01-20T06:38:29.724Z,4.50
2023-01-20T06:41:00.228Z,4.45
2023-01-20T06:43:28.981Z,3.92
2023-01-20T06:46:02.490Z,4.00
2023-01-20T06:48:29.441Z,6.10
2023-01-20T06:51:07.159Z,3.70
2023-01-20T06:53:34.320Z,3.47
2023-01-20T06:56:01.791Z,4.05
2023-01-20T06:58:30.363Z,4.07
2023-01-20T07:00:58.200Z,3.97
2023-01-20T07:03:25.076Z,3.45
2023-01-20T07:06:26.534Z,5.03
2023-01-20T07:08:53.622Z,4.00
2023-01-20T07:11:20.895Z,4.07
2023-01-20T07:13:48.176Z,4.50
2023-01-20T07:16:15.991Z,4.13
2023-01-20T07:18:43.712Z,3.95
2023-01-20T07:21:13.616Z,4.35
2023-01-20T07:23:40.554Z,4.35
2023-01-20T07:26:08.995Z,4.22
2023-01-20T07:28:36.192Z,4.45
2023-01-20T07:31:10.425Z,5.60
2023-01-20T07:33:37.469Z,3.00
2023-01-20T07:36:06.921Z,4.90
2023-01-20T07:38:34.215Z,3.92
2023-01-20T07:41:04.615Z,2.85
2023-01-20T07:43:31.754Z,4.57
2023-01-20T07:45:59.631Z,3.83
2023-01-20T07:48:26.957Z,3.97
2023-01-20T07:51:02.948Z,3.83
2023-01-20T07:53:30.100Z,3.35
2023-01-20T07:56:00.364Z,3.75
2023-01-20T07:58:29.676Z,3.95
2023-01-20T08:00:57.078Z,4.63
2023-01-20T08:03:26.602Z,3.95
2023-01-20T08:05:54.018Z,3.70
2023-01-20T08:08:23.562Z,4.13
2023-01-20T08:10:54.357Z,3.83
2023-01-20T08:13:22.513Z,3.15
2023-01-20T08:15:50.699Z,3.67
2023-01-20T08:18:17.465Z,3.75
2023-01-20T08:20:44.698Z,4.00
2023-01-20T08:23:11.505Z,4.13
2023-01-20T08:25:38.270Z,4.03
2023-01-20T08:28:05.636Z,3.78
2023-01-20T08:30:35.311Z,4.60
2023-01-20T08:33:03.288Z,4.05
2023-01-20T08:35:30.437Z,4.63
2023-01-20T08:37:57.557Z,4.10
2023-01-20T08:40:24.762Z,3.42
2023-01-20T08:42:53.612Z,3.80
2023-01-20T08:45:20.958Z,3.75
2023-01-20T08:47:48.952Z,4.28
2023-01-20T08:50:15.818Z,4.13
2023-01-20T08:52:44.932Z,3.58
2023-01-20T08:55:11.975Z,3.78
2023-01-20T08:57:40.348Z,3.72
2023-01-20T09:00:08.034Z,3.72
2023-01-20T09:02:34.963Z,2.83
2023-01-20T09:05:01.948Z,4.40
2023-01-20T09:07:28.872Z,4.18
2023-01-20T09:09:55.660Z,4.15
2023-01-20T09:12:22.822Z,3.70
2023-01-20T09:14:50.807Z,4.50
2023-01-20T09:17:17.831Z,3.45
2023-01-20T09:19:44.819Z,3.72
2023-01-20T09:22:12.842Z,3.67
2023-01-20T09:24:40.383Z,3.63
2023-01-20T09:27:07.157Z,3.78
2023-01-20T09:29:34.853Z,4.05
2023-01-20T09:32:02.625Z,4.45
2023-01-20T09:34:33.169Z,3.65
2023-01-20T09:37:27.004Z,4.25
2023-01-20T09:40:14.452Z,3.53
2023-01-20T09:43:15.509Z,3.08
2023-01-20T09:46:09.368Z,4.05
2023-01-20T09:49:13.023Z,3.65
2023-01-20T09:54:44.285Z,3.67
2023-01-20T09:57:11.043Z,3.92
2023-01-20T09:59:42.891Z,4.15
2023-01-20T10:02:17.290Z,7.00
2023-01-20T10:04:47.147Z,6.40
2023-01-20T10:07:20.347Z,7.03
2023-01-20T10:10:20.095Z,8.23
2023-01-20T10:13:01.340Z,9.32
2023-01-20T10:15:29.442Z,8.75
2023-01-20T10:18:11.432Z,8.07
2023-01-20T10:20:45.698Z,9.10
2023-01-20T10:23:34.183Z,7.40
2023-01-20T10:26:33.204Z,8.13
2023-01-20T10:29:01.539Z,7.82
2023-01-20T10:31:31.031Z,7.35
2023-01-20T10:34:01.080Z,6.50
2023-01-20T10:36:29.872Z,7.53
2023-01-20T10:39:05.080Z,8.27
2023-01-20T10:41:31.621Z,7.72
2023-01-20T10:43:58.435Z,8.15
2023-01-20T10:46:51.671Z,6.45
2023-01-20T10:49:40.215Z,6.80
2023-01-20T10:52:28.234Z,6.45
2023-01-20T10:55:16.704Z,6.03
2023-01-20T10:57:43.919Z,6.15
2023-01-20T11:00:27.378Z,6.93
2023-01-20T11:02:54.178Z,5.97
2023-01-20T11:05:29.820Z,5.93
2023-01-20T11:07:56.895Z,5.70
2023-01-20T11:10:25.802Z,4.72
2023-01-20T11:12:54.975Z,4.88
2023-01-20T11:15:25.377Z,7.28
2023-01-20T11:18:14.199Z,10.25
2023-01-20T11:20:56.965Z,7.07
2023-01-20T11:23:27.323Z,6.72
2023-01-20T11:25:57.223Z,5.78
2023-01-20T11:28:25.105Z,6.25
2023-01-20T11:30:54.109Z,9.27
2023-01-20T11:33:25.416Z,6.32
2023-01-20T11:36:19.128Z,5.40
2023-01-20T11:38:48.101Z,6.00
2023-01-20T11:41:26.204Z,6.78
2023-01-20T11:43:56.687Z,4.97
2023-01-20T11:46:30.725Z,7.95
2023-01-20T11:49:22.993Z,5.82
2023-01-20T11:51:56.707Z,6.20
2023-01-20T11:54:25.303Z,5.07
2023-01-20T11:56:56.483Z,5.47
2023-01-20T11:59:30.402Z,6.35
2023-01-20T12:02:01.873Z,5.45
2023-01-20T12:05:05.422Z,5.80
2023-01-20T12:10:04.688Z,5.20
2023-01-20T12:13:15.965Z,7.60
2023-01-20T12:15:44.866Z,7.38
2023-01-20T12:18:20.094Z,6.80
2023-01-20T12:20:56.166Z,7.32
2023-01-20T12:23:49.287Z,7.53
2023-01-20T12:26:17.384Z,7.43
2023-01-20T12:29:22.682Z,5.13
2023-01-20T12:31:49.566Z,5.50
2023-01-20T12:34:27.562Z,5.53
2023-01-20T12:37:16.902Z,5.70
2023-01-20T12:39:56.771Z,6.72
2023-01-20T12:42:38.740Z,6.45
2023-01-20T12:45:43.241Z,5.20
2023-01-20T12:48:31.201Z,5.30
2023-01-20T12:51:20.647Z,5.65
2023-01-20T12:54:08.591Z,5.85
2023-01-20T12:57:04.712Z,5.65
2023-01-20T12:59:40.335Z,6.47
2023-01-20T13:02:15.929Z,5.82
2023-01-20T13:04:55.834Z,6.25
2023-01-20T13:07:35.180Z,6.85
2023-01-20T13:10:20.585Z,6.78
2023-01-20T13:13:12.056Z,4.90
2023-01-20T13:15:46.223Z,5.00
2023-01-20T13:18:28.695Z,5.90
2023-01-20T13:20:55.775Z,4.88
2023-01-20T13:23:28.641Z,7.43
2023-01-20T13:28:24.520Z,5.57
2023-01-20T13:30:54.587Z,6.65
2023-01-20T13:33:40.461Z,6.15
2023-01-20T13:36:17.764Z,5.65
2023-01-20T13:38:45.431Z,4.78
2023-01-20T13:41:13.014Z,5.90
2023-01-20T13:43:43.042Z,6.47
2023-01-20T13:46:09.927Z,5.00
2023-01-20T13:48:37.599Z,7.18
2023-01-20T13:51:19.313Z,5.05
2023-01-20T13:53:46.380Z,5.45
2023-01-20T13:56:29.659Z,5.45
2023-01-20T13:59:00.706Z,6.20
2023-01-20T14:01:30.700Z,5.35
2023-01-20T14:04:06.424Z,4.75
2023-01-20T14:06:36.160Z,5.15
2023-01-20T14:09:04.896Z,5.45
2023-01-20T14:11:32.832Z,4.22
2023-01-20T14:13:59.720Z,3.95
2023-01-20T14:16:28.685Z,4.88
2023-01-20T14:18:57.363Z,5.00
2023-01-20T14:21:25.510Z,5.65
2023-01-20T14:23:52.671Z,5.10
2023-01-20T14:26:26.979Z,4.20
2023-01-20T14:28:58.444Z,4.65
2023-01-20T14:31:40.778Z,6.22
2023-01-20T14:34:27.147Z,5.28
2023-01-20T14:36:55.107Z,4.63
2023-01-20T14:39:42.293Z,4.82
2023-01-20T14:42:22.558Z,4.68
2023-01-20T14:44:52.850Z,6.68
2023-01-20T14:47:21.144Z,5.10
2023-01-20T14:49:49.345Z,4.78
2023-01-20T14:52:28.727Z,4.00
2023-01-20T14:54:56.552Z,4.70
2023-01-20T14:57:41.305Z,3.97
2023-01-20T15:00:20.325Z,4.97
2023-01-20T15:03:11.353Z,5.43
2023-01-20T15:05:53.036Z,5.05
2023-01-20T15:08:25.950Z,4.45
2023-01-20T15:11:12.192Z,4.05
2023-01-20T15:13:39.914Z,4.18
2023-01-20T15:16:19.686Z,4.47
2023-01-20T15:19:23.174Z,4.55
2023-01-20T15:21:56.337Z,3.53
2023-01-20T15:24:25.400Z,4.68
2023-01-20T15:26:53.764Z,5.30
2023-01-20T15:29:22.135Z,6.65
2023-01-20T15:31:49.819Z,4.95
2023-01-20T15:34:17.007Z,5.57
2023-01-20T15:36:44.958Z,6.40
2023-01-20T15:39:20.558Z,9.50
2023-01-20T15:41:49.882Z,23.90
2023-01-20T15:44:18.351Z,20.65
2023-01-20T15:46:45.513Z,18.38
2023-01-20T15:49:13.062Z,16.65
2023-01-20T15:51:40.020Z,15.25
2023-01-20T15:54:11.462Z,15.77
2023-01-20T15:56:40.558Z,13.50
2023-01-20T15:59:25.963Z,10.70
2023-01-20T16:01:53.011Z,16.15
2023-01-20T16:04:21.321Z,17.15
2023-01-20T16:06:48.136Z,15.25
2023-01-20T16:09:22.760Z,14.52
2023-01-20T16:11:50.899Z,12.43
2023-01-20T16:14:17.706Z,12.10
2023-01-20T16:16:44.348Z,15.00
2023-01-20T16:19:14.551Z,15.00
2023-01-20T16:21:41.948Z,9.95
2023-01-20T16:24:10.141Z,16.38
2023-01-20T16:26:38.016Z,12.82
2023-01-20T16:29:05.032Z,11.45
2023-01-20T16:31:33.529Z,10.55
2023-01-20T16:34:01.914Z,15.73
2023-01-20T16:36:31.748Z,12.02
2023-01-20T16:39:01.417Z,13.63
2023-01-20T16:41:31.018Z,12.35
2023-01-20T16:43:58.705Z,10.93
2023-01-20T16:46:27.176Z,10.52
2023-01-20T16:48:59.288Z,11.75
2023-01-20T16:51:26.835Z,11.90
2023-01-20T16:53:54.385Z,10.27
2023-01-20T16:56:23.907Z,11.38
2023-01-20T16:58:52.041Z,9.45
2023-01-20T17:01:24.883Z,9.05
2023-01-20T17:03:56.148Z,11.55
2023-01-20T17:06:29.469Z,10.63
2023-01-20T17:08:57.658Z,10.77
2023-01-20T17:11:26.083Z,9.65
2023-01-20T17:13:53.291Z,10.85
2023-01-20T17:16:22.123Z,9.27
2023-01-20T17:18:53.417Z,9.23
2023-01-20T17:21:21.582Z,9.23
2023-01-20T17:23:52.533Z,9.75
2023-01-20T17:26:20.065Z,8.88
2023-01-20T17:28:46.963Z,8.73
2023-01-20T17:31:14.017Z,9.80
2023-01-20T17:33:46.609Z,7.78
2023-01-20T17:36:13.428Z,9.35
2023-01-20T17:38:43.584Z,9.13
2023-01-20T17:41:10.827Z,7.00
2023-01-20T17:43:41.932Z,7.78
2023-01-20T17:46:16.755Z,7.93
2023-01-20T17:48:44.408Z,7.90
2023-01-20T17:51:15.378Z,10.18
2023-01-20T17:53:45.967Z,8.50
2023-01-20T17:56:13.971Z,8.90
2023-01-20T17:58:44.605Z,9.35
2023-01-20T18:01:22.462Z,9.07
2023-01-20T18:03:50.616Z,8.20
2023-01-20T18:06:21.558Z,9.75
2023-01-20T18:08:54.077Z,8.10
2023-01-20T18:11:21.960Z,7.18
2023-01-20T18:13:50.080Z,7.68
2023-01-20T18:16:18.216Z,11.40
2023-01-20T18:18:45.583Z,7.90
2023-01-20T18:21:13.535Z,8.23
2023-01-20T18:23:40.518Z,7.45
2023-01-20T18:26:08.045Z,7.82
2023-01-20T18:28:35.603Z,7.97
2023-01-20T18:31:08.585Z,7.93
2023-01-20T18:33:43.588Z,8.90
2023-01-20T18:36:26.069Z,9.13
2023-01-20T18:38:55.489Z,7.28
2023-01-20T18:41:22.882Z,7.38
2023-01-20T18:43:52.649Z,7.65
2023-01-20T18:46:19.714Z,6.20
2023-01-20T18:48:47.398Z,9.10
2023-01-20T18:51:15.326Z,6.70
2023-01-20T18:53:43.172Z,5.93
2023-01-20T18:56:11.593Z,6.32
2023-01-20T18:58:38.594Z,6.88
2023-01-20T19:01:08.592Z,5.88
2023-01-20T19:03:35.835Z,6.35
2023-01-20T19:06:04.975Z,6.25
2023-01-20T19:08:34.065Z,5.72
2023-01-20T19:11:01.683Z,6.88
2023-01-20T19:13:29.299Z,9.27
2023-01-20T19:15:56.830Z,6.68
2023-01-20T19:18:23.646Z,6.50
2023-01-20T19:20:50.610Z,5.47
2023-01-20T19:23:17.676Z,7.10
2023-01-20T19:25:44.625Z,7.75
2023-01-20T19:28:12.316Z,7.30
2023-01-20T19:30:39.298Z,6.85
2023-01-20T19:33:12.167Z,5.07
2023-01-20T19:35:42.130Z,6.63
2023-01-20T19:38:11.351Z,5.68
2023-01-20T19:40:42.780Z,5.90
2023-01-20T19:43:10.442Z,6.03
2023-01-20T19:45:45.336Z,5.82
2023-01-20T19:48:13.047Z,5.60
2023-01-20T19:50:40.206Z,5.30
2023-01-20T19:53:07.061Z,7.53
2023-01-20T19:55:34.599Z,6.30
2023-01-20T19:58:01.585Z,5.53
2023-01-20T20:00:28.574Z,5.47
2023-01-20T20:02:55.923Z,6.07
2023-01-20T20:05:22.885Z,6.47
2023-01-20T20:07:51.271Z,6.05
2023-01-20T20:10:18.907Z,8.05
2023-01-20T20:12:48.940Z,5.57
2023-01-20T20:15:16.066Z,7.50
2023-01-20T20:17:42.914Z,5.70
2023-01-20T20:20:10.757Z,6.65
2023-01-20T20:22:37.735Z,5.70
2023-01-20T20:25:10.525Z,8.25
2023-01-20T20:27:38.342Z,7.40
2023-01-20T20:30:07.829Z,6.47
2023-01-20T20:32:34.730Z,7.20
2023-01-20T20:35:01.700Z,6.82
2023-01-20T20:37:28.555Z,6.55
2023-01-20T20:39:55.495Z,5.90
2023-01-20T20:42:22.500Z,6.72
2023-01-20T20:44:49.408Z,6.30
2023-01-20T20:47:17.135Z,5.60
2023-01-20T20:49:44.031Z,6.32
2023-01-20T20:52:11.079Z,8.85
2023-01-20T20:54:41.578Z,4.90
2023-01-20T20:57:10.163Z,6.00
2023-01-20T20:59:47.231Z,9.35
2023-01-20T21:02:24.933Z,7.15
2023-01-20T21:04:51.782Z,8.32
2023-01-20T21:07:19.592Z,6.40
2023-01-20T21:09:52.224Z,6.95
2023-01-20T21:12:19.156Z,5.25
2023-01-20T21:14:55.797Z,7.07
2023-01-20T21:17:22.743Z,5.82
2023-01-20T21:19:52.255Z,11.63
2023-01-20T21:22:20.125Z,6.25
2023-01-20T21:24:46.915Z,7.03
2023-01-20T21:27:13.794Z,6.30
2023-01-20T21:29:40.752Z,6.57
2023-01-20T21:32:07.720Z,7.10
2023-01-20T21:34:36.069Z,14.50
2023-01-20T21:37:03.074Z,5.15
2023-01-20T21:39:30.030Z,5.95
2023-01-20T21:41:56.979Z,4.93
2023-01-20T21:44:29.897Z,5.18
2023-01-20T21:49:42.759Z,5.88
2023-01-20T21:52:32.909Z,5.03
2023-01-20T21:55:02.604Z,6.50
2023-01-20T21:57:29.825Z,5.40
2023-01-20T21:59:57.017Z,4.90
2023-01-20T22:02:23.814Z,4.57
2023-01-20T22:04:50.992Z,7.10
2023-01-20T22:07:17.843Z,5.25
2023-01-20T22:09:44.544Z,5.78
2023-01-20T22:12:14.353Z,5.75
2023-01-20T22:14:47.325Z,4.97
2023-01-20T22:19:43.929Z,5.13
2023-01-20T22:22:10.861Z,6.72
2023-01-20T22:24:37.522Z,5.05
2023-01-20T22:27:04.229Z,6.40
2023-01-20T22:29:31.688Z,4.32
